createdAt,value
2022-09-01T00:03:39.530Z,301.4
2022-09-01T00:18:41.413Z,92.4
2022-09-01T00:33:43.300Z,57.2
2022-09-01T00:48:45.236Z,24.2
2022-09-01T01:03:47.232Z,13.2
2022-09-01T01:18:50.166Z,6.6
2022-09-01T01:33:52.018Z,11
2022-09-01T01:48:53.844Z,6.6
2022-09-01T02:03:55.685Z,4.4
2022-09-01T02:18:57.663Z,15.4
2022-09-01T02:33:59.478Z,8.8
2022-09-01T02:49:01.416Z,2.2
2022-09-01T03:04:03.258Z,0
2022-09-01T03:19:05.088Z,0
2022-09-01T03:34:06.912Z,6.6
2022-09-01T03:49:08.756Z,2.2
2022-09-01T04:04:10.607Z,2.2
2022-09-01T04:19:12.456Z,0
2022-09-01T04:34:14.267Z,2.2
2022-09-01T04:49:16.074Z,2.2
2022-09-01T05:04:18.361Z,0
2022-09-01T05:19:20.211Z,2.2
2022-09-01T05:34:22.041Z,0
2022-09-01T05:49:23.888Z,0
2022-09-01T06:04:25.912Z,0
2022-09-01T06:19:27.723Z,0
2022-09-01T06:34:29.539Z,0
2022-09-01T06:49:31.375Z,0
2022-09-01T07:04:33.204Z,0
2022-09-01T07:19:49.131Z,0
2022-09-01T07:34:51.004Z,0
2022-09-01T07:50:24.276Z,0
2022-09-01T08:05:27.478Z,0
2022-09-01T08:20:29.321Z,0
2022-09-01T08:35:31.152Z,0
2022-09-01T08:50:32.979Z,0
2022-09-01T09:05:34.828Z,0
2022-09-01T09:20:36.671Z,0
2022-09-01T09:35:42.476Z,0
2022-09-01T09:50:44.347Z,0
2022-09-01T10:05:47.366Z,0
2022-09-01T10:20:49.182Z,0
2022-09-01T10:35:51.022Z,0
2022-09-01T10:50:52.917Z,0
2022-09-01T11:06:11.055Z,0
2022-09-01T11:21:13.412Z,0
2022-09-01T11:36:15.255Z,0
2022-09-01T11:51:17.082Z,0
2022-09-01T12:06:18.883Z,0
2022-09-01T12:21:20.727Z,0
2022-09-01T12:36:22.550Z,0
2022-09-01T12:51:27.884Z,2.2
2022-09-01T13:06:33.489Z,6.6
2022-09-01T13:21:35.379Z,17.6
2022-09-01T13:36:48.274Z,33
2022-09-01T13:51:53.219Z,50.6
2022-09-01T14:06:55.043Z,88
2022-09-01T14:21:56.926Z,107.8
2022-09-01T14:36:58.807Z,88
2022-09-01T14:52:12.700Z,61.6
2022-09-01T15:07:14.617Z,68.2
2022-09-01T15:22:16.526Z,46.2
2022-09-01T15:37:18.380Z,44
2022-09-01T15:52:20.201Z,50.6
2022-09-01T16:07:21.993Z,70.4
2022-09-01T16:22:23.825Z,74.8
2022-09-01T16:37:25.662Z,77
2022-09-01T16:52:27.474Z,81.4
2022-09-01T17:07:29.761Z,88
2022-09-01T17:22:31.750Z,92.4
2022-09-01T17:37:33.562Z,94.6
2022-09-01T17:52:35.378Z,96.8
2022-09-01T18:07:37.238Z,99
2022-09-01T18:22:39.070Z,99
2022-09-01T18:37:40.884Z,99
2022-09-01T18:52:42.720Z,101.2
2022-09-01T19:07:44.534Z,101.2
2022-09-01T19:22:46.375Z,99
2022-09-01T19:37:48.200Z,105.6
2022-09-01T19:52:50.014Z,105.6
2022-09-01T20:07:51.850Z,107.8
2022-09-01T20:22:53.707Z,110
2022-09-01T20:37:55.545Z,110
2022-09-01T20:52:57.396Z,114.4
2022-09-01T21:07:59.223Z,114.4
2022-09-01T21:23:01.045Z,134.2
2022-09-01T21:38:05.582Z,132
2022-09-01T21:53:07.441Z,134.2
2022-09-01T22:08:09.279Z,140.8
2022-09-01T22:23:11.094Z,138.6
2022-09-01T22:38:12.941Z,138.6
2022-09-01T22:53:14.767Z,138.6
2022-09-01T23:08:16.608Z,149.6
2022-09-01T23:23:18.452Z,176
2022-09-01T23:38:20.351Z,200.2
2022-09-01T23:53:22.411Z,244.2
